Time;durP1;ratioP1;P1;durP2;ratioP2;P2;SDS_P1;SDS_P2;PMS_P1;PMS_P2;Temp;Humidity;BMP_temperature;BMP_pressure;BME280_temperature;BME280_humidity;BME280_pressure;Samples;Min_cycle;Max_cycle;Signal;HPM_P1;HPM_P2
2023/07/31 00:00:31;;;;;;;4.70;1.90;;;;;;;18.51;56.92;98970.38;5134739;27;20023;-46
2023/07/31 00:02:56;;;;;;;7.13;2.45;;;;;;;18.31;57.38;98962.94;5133602;27;20087;-46
2023/07/31 00:05:22;;;;;;;8.48;1.98;;;;;;;18.23;57.56;98963.34;5133120;27;20096;-47
2023/07/31 00:07:48;;;;;;;6.57;2.17;;;;;;;18.19;57.97;98964.03;5133261;27;20019;-46
2023/07/31 00:10:13;;;;;;;6.28;2.38;;;;;;;18.21;58.25;98961.94;5134569;27;20452;-45
2023/07/31 00:12:41;;;;;;;10.23;2.28;;;;;;;18.46;58.27;98964.97;5133192;27;20016;-46
2023/07/31 00:15:07;;;;;;;10.32;2.35;;;;;;;18.71;57.95;98961.03;5133327;27;20027;-46
2023/07/31 00:17:33;;;;;;;7.07;2.30;;;;;;;18.99;57.38;98964.59;5134447;27;20026;-46
2023/07/31 00:19:59;;;;;;;9.52;2.92;;;;;;;19.32;56.76;98956.47;5134419;27;20023;-46
2023/07/31 00:22:24;;;;;;;9.80;5.30;;;;;;;19.50;55.91;98957.97;5134313;27;20027;-46
2023/07/31 00:24:51;;;;;;;12.60;2.60;;;;;;;19.28;55.36;98960.69;5134296;27;20019;-46
2023/07/31 00:27:17;;;;;;;7.47;2.13;;;;;;;19.02;56.08;98958.81;5134218;27;20073;-46
2023/07/31 00:29:43;;;;;;;13.30;2.75;;;;;;;18.90;56.43;98957.06;5134133;27;20054;-46
2023/07/31 00:32:08;;;;;;;6.30;2.30;;;;;;;18.79;56.59;98954.50;5115758;27;20019;-46
2023/07/31 00:34:34;;;;;;;8.82;2.63;;;;;;;18.53;56.80;98939.03;5134040;27;20015;-46
2023/07/31 00:37:00;;;;;;;9.63;2.78;;;;;;;18.61;58.21;98934.34;5132741;27;20030;-46
2023/07/31 00:39:25;;;;;;;8.23;2.58;;;;;;;19.10;57.64;98935.22;5132914;27;20023;-46
2023/07/31 00:41:54;;;;;;;11.73;3.42;;;;;;;19.48;56.43;98938.78;5132607;27;20509;-46
2023/07/31 00:44:19;;;;;;;9.77;2.70;;;;;;;19.81;55.59;98939.63;5133938;27;20061;-46
2023/07/31 00:46:45;;;;;;;12.90;2.70;;;;;;;20.05;54.63;98932.06;5133813;27;20023;-46
2023/07/31 00:49:12;;;;;;;13.25;2.92;;;;;;;20.26;53.87;98932.19;5132556;27;20511;-46
2023/07/31 00:51:37;;;;;;;16.15;2.90;;;;;;;20.30;53.20;98925.28;5132401;27;20027;-46
2023/07/31 00:54:03;;;;;;;12.80;2.40;;;;;;;20.09;53.47;98925.19;5132290;27;20055;-46
2023/07/31 00:56:29;;;;;;;13.35;2.45;;;;;;;19.98;53.25;98915.53;5132443;27;20030;-46
2023/07/31 00:58:56;;;;;;;15.70;3.13;;;;;;;19.90;53.90;98915.97;5134064;27;20023;-46
2023/07/31 01:01:22;;;;;;;18.08;3.25;;;;;;;19.95;53.72;98908.03;5132181;27;20039;-46
2023/07/31 01:03:48;;;;;;;7.18;2.10;;;;;;;19.98;53.55;98912.03;5132127;27;20019;-46
2023/07/31 01:06:35;;;;;;;312.42;286.30;;;;;;;19.87;53.81;98908.50;5132815;27;20048;-46
2023/07/31 01:09:08;;;;;;;50.90;16.77;;;;;;;19.75;54.00;98916.66;5133480;27;20068;-46
2023/07/31 01:11:43;;;;;;;13.07;4.60;;;;;;;19.82;54.19;98916.44;5133372;27;20067;-46
2023/07/31 01:14:08;;;;;;;14.65;2.95;;;;;;;19.91;53.88;98920.25;5133301;27;20103;-46
2023/07/31 01:16:34;;;;;;;10.07;3.08;;;;;;;19.93;53.80;98907.47;5131874;27;20485;-46
2023/07/31 01:18:59;;;;;;;9.73;2.42;;;;;;;20.05;53.44;98916.09;5133293;27;20015;-46
2023/07/31 01:21:44;;;;;;;9.70;2.83;;;;;;;20.10;53.14;98913.47;5131847;27;20437;-46
2023/07/31 01:24:42;;;;;;;11.82;2.60;;;;;;;20.19;53.12;98916.44;5133245;27;20019;-46
2023/07/31 01:27:15;;;;;;;9.90;2.05;;;;;;;19.98;52.66;98914.69;5133140;27;20027;-46
2023/07/31 01:29:56;;;;;;;4.25;1.80;;;;;;;19.21;53.58;98912.16;5131760;27;20038;-46
2023/07/31 01:32:23;;;;;;;4.10;1.80;;;;;;;18.60;55.50;98920.25;5131751;27;20039;-46
2023/07/31 01:34:49;;;;;;;7.57;2.28;;;;;;;18.33;56.52;98920.16;5131645;27;20019;-46
2023/07/31 01:37:14;;;;;;;9.77;2.97;;;;;;;18.20;57.33;98921.31;5131770;27;20400;-46
2023/07/31 01:39:40;;;;;;;8.82;2.33;;;;;;;18.08;57.58;98918.75;5131593;27;20023;-46
2023/07/31 01:42:07;;;;;;;7.80;2.75;;;;;;;17.93;57.77;98915.88;5131811;27;20046;-46
2023/07/31 01:44:33;;;;;;;5.68;2.30;;;;;;;17.49;58.62;98910.38;5132919;27;20072;-46
2023/07/31 01:47:01;;;;;;;8.02;3.20;;;;;;;17.20;59.44;98909.59;5131476;27;20027;-46
2023/07/31 01:49:27;;;;;;;14.40;5.85;;;;;;;17.20;60.43;98907.72;5131773;27;20455;-46
2023/07/31 01:51:52;;;;;;;12.93;3.35;;;;;;;17.62;60.39;98909.25;5131399;27;20058;-46
2023/07/31 01:54:18;;;;;;;11.27;3.00;;;;;;;17.80;59.65;98902.88;5132985;27;20023;-46
2023/07/31 01:56:44;;;;;;;7.50;2.53;;;;;;;18.07;59.79;98895.06;5132676;27;20034;-46
2023/07/31 01:59:09;;;;;;;8.95;3.05;;;;;;;18.40;58.99;98891.56;5131757;28;20027;-46
2023/07/31 02:01:35;;;;;;;10.55;2.95;;;;;;;18.54;58.15;98889.34;5132644;27;20456;-46
2023/07/31 02:04:01;;;;;;;8.75;2.72;;;;;;;18.42;57.83;98884.13;5132223;28;20019;-47
2023/07/31 02:06:27;;;;;;;14.10;3.35;;;;;;;18.43;58.22;98879.63;5132734;27;20038;-46
2023/07/31 02:08:52;;;;;;;8.32;2.38;;;;;;;18.35;57.75;98878.19;5131281;28;20034;-46
2023/07/31 02:11:18;;;;;;;6.75;2.88;;;;;;;18.04;58.17;98883.09;5131601;28;20020;-46
2023/07/31 02:13:44;;;;;;;10.27;2.95;;;;;;;17.84;58.95;98893.44;5132523;27;20477;-46
2023/07/31 02:16:10;;;;;;;6.25;2.30;;;;;;;17.95;59.17;98880.06;5132724;27;20156;-46
2023/07/31 02:18:36;;;;;;;7.97;2.63;;;;;;;17.85;58.61;98893.19;5136766;27;20102;-46
2023/07/31 02:21:01;;;;;;;7.80;2.78;;;;;;;17.78;59.21;98890.66;5136632;27;20467;-46
2023/07/31 02:23:27;;;;;;;13.15;3.22;;;;;;;17.83;59.56;98886.47;5136710;27;20522;-46
2023/07/31 02:25:52;;;;;;;7.20;1.90;;;;;;;18.16;59.17;98875.81;5136588;27;20019;-46
2023/07/31 02:28:18;;;;;;;19.80;3.75;;;;;;;18.24;58.51;98879.13;5136616;27;20051;-46
2023/07/31 02:30:48;;;;;;;8.40;3.20;;;;;;;18.39;58.43;98871.34;5135113;27;20055;-46
2023/07/31 02:33:15;;;;;;;14.63;3.75;;;;;;;18.66;57.95;98870.59;5136772;27;20055;-46
2023/07/31 02:35:41;;;;;;;10.45;2.25;;;;;;;18.66;57.09;98876.72;5136268;27;20020;-46
2023/07/31 02:38:09;;;;;;;12.95;2.80;;;;;;;17.97;57.72;98874.53;5136357;27;20041;-46
2023/07/31 02:40:35;;;;;;;6.93;2.13;;;;;;;17.21;59.52;98872.22;5136336;27;20027;-46
2023/07/31 02:43:01;;;;;;;10.10;2.38;;;;;;;16.64;61.04;98880.97;5136257;27;20027;-46
2023/07/31 02:45:26;;;;;;;8.68;2.03;;;;;;;16.32;62.43;98878.72;5136216;27;20027;-46
2023/07/31 02:47:52;;;;;;;5.32;2.03;;;;;;;16.21;63.25;98879.53;5134884;27;20023;-46
2023/07/31 02:50:18;;;;;;;21.25;4.07;;;;;;;16.46;64.10;98894.34;5136119;27;20058;-46
2023/07/31 02:52:46;;;;;;;10.77;3.00;;;;;;;17.16;63.70;98894.16;5136131;27;20102;-46
2023/07/31 02:55:12;;;;;;;6.97;2.20;;;;;;;17.74;61.51;98894.03;5135998;27;20081;-46
2023/07/31 02:57:38;;;;;;;18.25;3.38;;;;;;;17.94;60.71;98906.84;5136010;27;20500;-46
2023/07/31 03:00:06;;;;;;;15.45;3.17;;;;;;;18.11;60.31;98904.16;5135958;27;20389;-46
2023/07/31 03:02:32;;;;;;;8.40;2.15;;;;;;;18.20;59.33;98909.88;5135851;27;20020;-46
2023/07/31 03:04:57;;;;;;;13.80;2.70;;;;;;;18.04;59.29;98908.84;5135621;27;20064;-46
2023/07/31 03:07:23;;;;;;;6.90;2.35;;;;;;;17.96;59.31;98913.53;5135834;27;20016;-46
2023/07/31 03:09:49;;;;;;;4.78;1.83;;;;;;;17.61;59.70;98905.78;5135804;27;20489;-46
2023/07/31 03:12:15;;;;;;;5.95;2.30;;;;;;;17.35;60.23;98908.00;5134720;27;20016;-46
2023/07/31 03:14:40;;;;;;;7.75;2.88;;;;;;;17.30;61.35;98905.25;5135559;27;20027;-46
2023/07/31 03:17:06;;;;;;;10.73;2.63;;;;;;;17.71;61.43;98897.19;5134346;27;20516;-46
2023/07/31 03:19:33;;;;;;;13.07;2.45;;;;;;;17.88;60.03;98895.34;5136226;27;20061;-46
2023/07/31 03:22:01;;;;;;;555.00;502.60;;;;;;;17.62;59.63;98895.97;5135539;27;20031;-46
2023/07/31 03:24:28;;;;;;;121.63;59.80;;;;;;;17.39;60.80;98897.72;5134281;27;20024;-46
2023/07/31 03:26:54;;;;;;;17.27;6.43;;;;;;;17.65;60.81;98892.84;5135461;27;20019;-46
2023/07/31 03:29:20;;;;;;;11.60;5.40;;;;;;;17.92;60.29;98898.31;5133385;27;20488;-46
2023/07/31 03:31:45;;;;;;;10.55;3.65;;;;;;;17.75;59.45;98893.81;5133984;27;20396;-46
2023/07/31 03:34:11;;;;;;;7.93;2.83;;;;;;;17.45;60.13;98890.66;5135328;27;20117;-45
2023/07/31 03:36:37;;;;;;;8.48;2.65;;;;;;;17.15;60.44;98881.13;5135262;27;20569;-46
2023/07/31 03:39:03;;;;;;;10.05;2.35;;;;;;;16.68;61.08;98881.28;5133866;27;20418;-46
2023/07/31 03:41:29;;;;;;;7.15;2.65;;;;;;;16.22;62.75;98875.84;5133776;27;20052;-46
2023/07/31 03:43:57;;;;;;;8.82;3.05;;;;;;;16.16;63.73;98876.78;5133788;27;20126;-46
2023/07/31 03:46:24;;;;;;;10.02;2.67;;;;;;;16.26;63.86;98876.16;5134994;27;20023;-46
2023/07/31 03:48:50;;;;;;;8.50;2.80;;;;;;;16.31;63.63;98884.25;5135063;27;20069;-45
2023/07/31 03:51:18;;;;;;;13.48;2.80;;;;;;;16.30;64.01;98890.59;5134995;27;20031;-45
2023/07/31 03:53:44;;;;;;;14.75;2.40;;;;;;;16.66;64.82;98891.28;5134892;27;20026;-46
2023/07/31 03:56:11;;;;;;;12.82;2.70;;;;;;;17.18;63.47;98888.59;5134836;27;20023;-46
2023/07/31 03:58:36;;;;;;;17.55;3.45;;;;;;;17.28;62.10;98891.44;5133483;27;20039;-46
2023/07/31 04:01:03;;;;;;;15.63;3.20;;;;;;;16.99;61.81;98898.59;5133524;27;20475;-46
2023/07/31 04:03:29;;;;;;;6.70;2.13;;;;;;;16.55;62.50;98899.03;5133365;27;20031;-46
2023/07/31 04:05:56;;;;;;;4.97;2.15;;;;;;;16.17;63.50;98908.31;5133196;27;20043;-46
2023/07/31 04:08:22;;;;;;;7.78;2.33;;;;;;;15.86;64.53;98911.31;5134687;27;20069;-46
2023/07/31 04:10:48;;;;;;;6.82;2.38;;;;;;;15.58;65.34;98918.03;5134893;27;20065;-46
2023/07/31 04:13:14;;;;;;;6.82;2.90;;;;;;;15.44;65.97;98920.06;5134814;27;20019;-48
2023/07/31 04:15:40;;;;;;;13.65;2.90;;;;;;;15.28;66.68;98910.94;5134345;27;20544;-48
2023/07/31 04:18:06;;;;;;;5.97;2.30;;;;;;;15.21;67.25;98907.56;5134517;27;20047;-48
2023/07/31 04:20:32;;;;;;;5.22;2.00;;;;;;;15.13;67.81;98906.06;5134429;27;20055;-48
2023/07/31 04:22:57;;;;;;;14.70;2.45;;;;;;;15.00;68.17;98905.44;5134463;27;20121;-48
2023/07/31 04:25:23;;;;;;;11.90;2.50;;;;;;;14.92;68.65;98901.25;5133060;27;20542;-48
2023/07/31 04:27:49;;;;;;;9.13;2.78;;;;;;;14.95;68.80;98906.91;5134226;27;20019;-48
2023/07/31 04:30:14;;;;;;;10.20;2.75;;;;;;;15.04;68.64;98909.22;5134177;27;20030;-48
2023/07/31 04:32:40;;;;;;;10.27;2.83;;;;;;;15.39;69.37;98914.63;5133118;27;20066;-48
2023/07/31 04:35:06;;;;;;;6.57;2.67;;;;;;;15.88;68.26;98903.94;5132716;27;20092;-48
2023/07/31 04:37:32;;;;;;;8.27;3.28;;;;;;;16.26;67.45;98892.88;5133979;27;20492;-48
2023/07/31 04:39:57;;;;;;;17.50;3.90;;;;;;;16.86;66.16;98894.41;5131678;27;20106;-48
2023/07/31 04:42:23;;;;;;;15.80;4.20;;;;;;;17.42;64.49;98893.78;5134082;27;20151;-48
2023/07/31 04:44:48;;;;;;;11.85;2.42;;;;;;;17.80;62.69;98903.69;5133920;27;20109;-48
2023/07/31 04:47:14;;;;;;;16.73;3.65;;;;;;;18.04;61.69;98904.34;5133787;27;20055;-48
2023/07/31 04:49:40;;;;;;;4.60;2.22;;;;;;;18.03;60.40;98902.75;5132533;27;20059;-48
2023/07/31 04:52:06;;;;;;;7.15;2.65;;;;;;;17.49;60.22;98899.75;5133814;27;20019;-48
2023/07/31 04:54:31;;;;;;;9.82;2.65;;;;;;;16.85;61.40;98913.97;5133544;27;20019;-48
2023/07/31 04:56:57;;;;;;;10.68;2.88;;;;;;;16.43;62.99;98923.97;5133657;27;20023;-48
2023/07/31 04:59:23;;;;;;;7.32;2.38;;;;;;;16.05;63.75;98927.88;5133661;27;20510;-48
2023/07/31 05:01:48;;;;;;;9.40;2.40;;;;;;;15.81;64.94;98919.13;5132239;27;20042;-48
2023/07/31 05:04:14;;;;;;;6.78;2.75;;;;;;;15.65;65.64;98920.56;5133374;27;20493;-48
2023/07/31 05:06:41;;;;;;;5.18;2.15;;;;;;;15.57;66.27;98913.75;5133559;27;20027;-48
2023/07/31 05:09:06;;;;;;;8.35;3.10;;;;;;;15.55;66.61;98918.47;5133462;27;20038;-48
2023/07/31 05:11:32;;;;;;;9.98;3.33;;;;;;;15.84;66.72;98918.69;5133398;27;20023;-48
2023/07/31 05:13:58;;;;;;;7.13;2.50;;;;;;;16.09;65.87;98921.91;5133328;27;20019;-48
2023/07/31 05:16:23;;;;;;;11.73;3.15;;;;;;;16.09;65.25;98921.09;5131946;27;20518;-48
2023/07/31 05:18:49;;;;;;;10.43;2.65;;;;;;;16.16;65.48;98917.31;5131997;27;20067;-48
2023/07/31 05:21:15;;;;;;;8.82;2.90;;;;;;;16.48;64.88;98914.28;5133297;27;20068;-48
2023/07/31 05:23:40;;;;;;;11.25;3.33;;;;;;;16.88;63.97;98910.03;5133236;27;20023;-48
2023/07/31 05:26:07;;;;;;;10.88;2.60;;;;;;;17.19;63.00;98908.78;5133174;27;20037;-48
2023/07/31 05:28:35;;;;;;;11.45;2.83;;;;;;;17.91;61.96;98902.84;5133064;27;20034;-48
2023/07/31 05:31:01;;;;;;;17.27;3.22;;;;;;;18.40;60.00;98904.03;5133120;27;20016;-48
2023/07/31 05:33:27;;;;;;;13.40;3.05;;;;;;;18.93;59.05;98905.22;5133114;27;20038;-48
2023/07/31 05:35:53;;;;;;;9.60;2.58;;;;;;;19.83;56.59;98889.56;5131611;27;20030;-48
2023/07/31 05:38:18;;;;;;;13.25;3.45;;;;;;;20.95;53.77;98893.88;5133002;27;20027;-45
2023/07/31 05:40:44;;;;;;;11.57;3.15;;;;;;;21.96;50.04;98894.22;5114568;27;20050;-46
2023/07/31 05:43:10;;;;;;;9.05;2.83;;;;;;;22.81;47.60;98893.41;5131960;27;20051;-46
2023/07/31 05:45:36;;;;;;;8.65;2.60;;;;;;;23.81;45.23;98890.63;5132889;27;20415;-46
2023/07/31 05:48:03;;;;;;;8.05;3.10;;;;;;;23.95;43.37;98888.88;5132945;27;20018;-46
2023/07/31 05:50:28;;;;;;;7.70;2.75;;;;;;;23.78;43.46;98883.94;5132832;27;20026;-46
2023/07/31 05:52:54;;;;;;;8.25;3.83;;;;;;;23.89;42.65;98877.41;5131161;27;20129;-46
2023/07/31 05:55:20;;;;;;;6.63;2.53;;;;;;;24.28;41.70;98881.81;5132682;27;20091;-46
2023/07/31 05:57:46;;;;;;;11.18;2.60;;;;;;;24.75;41.20;98886.66;5132764;27;20027;-46
2023/07/31 06:00:13;;;;;;;21.35;3.85;;;;;;;25.31;39.77;98875.13;5131409;28;20027;-46
2023/07/31 06:02:39;;;;;;;8.05;2.83;;;;;;;25.50;38.82;98894.72;5132668;27;20038;-46
2023/07/31 06:05:07;;;;;;;6.78;2.50;;;;;;;25.27;39.05;98879.47;5131178;28;20043;-50
2023/07/31 06:07:33;;;;;;;9.70;3.50;;;;;;;25.26;39.35;98864.47;5131358;28;20023;-46
2023/07/31 06:10:04;;;;;;;8.75;2.75;;;;;;;25.77;38.68;98862.81;5132636;27;20020;-46
2023/07/31 06:12:34;;;;;;;9.35;2.72;;;;;;;26.06;37.72;98858.00;5132629;27;20057;-46
2023/07/31 06:15:00;;;;;;;8.18;2.50;;;;;;;26.61;37.19;98857.19;5132765;27;20076;-46
2023/07/31 06:17:28;;;;;;;5.72;2.50;;;;;;;27.39;36.20;98854.38;5132586;27;20023;-46
2023/07/31 06:19:54;;;;;;;11.60;2.60;;;;;;;27.87;34.82;98844.81;5131306;28;20489;-46
2023/07/31 06:22:20;;;;;;;14.35;3.55;;;;;;;28.05;34.57;98864.53;5132539;27;20030;-46
2023/07/31 06:24:46;;;;;;;14.32;3.40;;;;;;;29.02;33.73;98853.66;5131205;28;20438;-46
2023/07/31 06:27:12;;;;;;;12.02;3.95;;;;;;;30.15;31.90;98858.03;5132482;27;20031;-47
2023/07/31 06:29:37;;;;;;;5.63;2.00;;;;;;;30.81;30.48;98859.41;5132511;27;20027;-46
2023/07/31 06:32:04;;;;;;;7.03;2.40;;;;;;;31.19;30.12;98853.84;5132416;28;20019;-46
2023/07/31 06:34:30;;;;;;;9.27;3.00;;;;;;;31.87;28.91;98862.72;5132383;27;20496;-46
2023/07/31 06:36:56;;;;;;;7.63;2.38;;;;;;;32.68;27.20;98862.94;5132437;27;20022;-47
2023/07/31 06:39:22;;;;;;;12.25;3.65;;;;;;;33.01;27.12;98865.47;5132392;27;20126;-47
2023/07/31 06:41:50;;;;;;;4.70;2.22;;;;;;;33.37;26.18;98855.59;5132281;28;20536;-47
2023/07/31 06:44:16;;;;;;;16.52;3.13;;;;;;;33.12;26.69;98841.31;5132336;28;20031;-46
2023/07/31 06:46:42;;;;;;;6.88;2.40;;;;;;;32.93;26.56;98840.00;5132273;27;20019;-47
2023/07/31 06:49:08;;;;;;;6.38;2.55;;;;;;;33.07;26.09;98838.81;5132302;27;20396;-47
2023/07/31 06:51:35;;;;;;;7.97;2.38;;;;;;;33.03;26.12;98831.34;5132287;27;20019;-46
2023/07/31 06:54:01;;;;;;;7.30;2.40;;;;;;;32.77;25.70;98833.72;5132191;27;20077;-46
2023/07/31 06:56:27;;;;;;;8.68;2.47;;;;;;;32.64;26.18;98841.13;5130988;28;20023;-47
2023/07/31 06:58:53;;;;;;;12.02;2.72;;;;;;;33.40;26.16;98846.72;5132446;27;20027;-47
2023/07/31 07:01:18;;;;;;;7.85;2.40;;;;;;;34.52;24.55;98840.09;5132162;28;20563;-47
2023/07/31 07:03:44;;;;;;;7.00;2.15;;;;;;;35.29;23.31;98835.03;5133253;27;20023;-47
2023/07/31 07:06:10;;;;;;;13.00;3.08;;;;;;;35.50;23.30;98840.88;5135667;27;20043;-47
2023/07/31 07:08:35;;;;;;;11.80;2.95;;;;;;;35.38;23.15;98833.66;5135890;27;20404;-47
2023/07/31 07:11:01;;;;;;;25.50;3.55;;;;;;;35.84;23.01;98835.63;5135814;27;20056;-47
2023/07/31 07:13:26;;;;;;;9.90;2.47;;;;;;;36.51;22.74;98854.19;5135825;27;20054;-47
2023/07/31 07:15:52;;;;;;;15.15;3.80;;;;;;;36.59;22.73;98852.34;5135953;27;20099;-47
2023/07/31 07:18:18;;;;;;;16.02;2.88;;;;;;;36.45;23.06;98850.19;5135662;27;20545;-46
2023/07/31 07:20:51;;;;;;;11.32;2.85;;;;;;;36.41;22.88;98845.84;5135646;27;20030;-47
2023/07/31 07:23:17;;;;;;;16.75;2.45;;;;;;;35.97;23.07;98850.66;5135816;27;20039;-47
2023/07/31 07:25:43;;;;;;;11.25;2.80;;;;;;;35.63;23.63;98851.63;5134169;27;20041;-47
2023/07/31 07:28:10;;;;;;;8.45;1.98;;;;;;;35.19;24.15;98850.06;5135535;27;20051;-47
2023/07/31 07:30:35;;;;;;;10.60;2.35;;;;;;;35.17;24.12;98838.72;5135425;27;20022;-47
2023/07/31 07:33:01;;;;;;;16.45;2.60;;;;;;;35.28;23.94;98847.13;5135328;27;20023;-47
2023/07/31 07:35:27;;;;;;;43.10;5.75;;;;;;;35.13;24.25;98832.38;5135202;27;20050;-47
2023/07/31 07:37:53;;;;;;;22.23;4.47;;;;;;;35.06;24.59;98833.03;5133913;27;20111;-47
2023/07/31 07:40:20;;;;;;;23.73;4.00;;;;;;;35.41;24.00;98832.13;5133876;27;20374;-47
2023/07/31 07:42:48;;;;;;;13.20;2.95;;;;;;;35.83;23.11;98828.56;5133928;27;20097;-47
2023/07/31 07:45:13;;;;;;;13.85;3.85;;;;;;;36.52;22.51;98835.84;5134143;27;20027;-47
2023/07/31 07:47:41;;;;;;;8.05;2.00;;;;;;;37.21;21.82;98824.59;5134976;27;20026;-47
2023/07/31 07:50:07;;;;;;;10.80;3.47;;;;;;;38.09;20.74;98824.94;5135075;27;20015;-47
2023/07/31 07:52:36;;;;;;;16.00;3.85;;;;;;;38.45;19.99;98825.94;5133818;27;20072;-47
2023/07/31 07:55:03;;;;;;;35.47;5.80;;;;;;;38.30;19.87;98822.34;5134785;27;20023;-47
2023/07/31 07:57:29;;;;;;;11.23;2.70;;;;;;;38.21;20.07;98830.09;5116931;27;20461;-47
2023/07/31 07:59:54;;;;;;;8.25;2.90;;;;;;;38.32;19.60;98833.72;5135135;27;20019;-47
2023/07/31 08:02:22;;;;;;;15.35;2.97;;;;;;;38.49;19.39;98832.22;5134976;27;20031;-47
2023/07/31 08:04:48;;;;;;;17.15;2.97;;;;;;;38.41;19.17;98829.84;5134450;27;20461;-47
2023/07/31 08:07:14;;;;;;;8.70;2.58;;;;;;;38.35;18.93;98832.97;5134920;27;20473;-48
2023/07/31 08:09:40;;;;;;;9.35;2.83;;;;;;;38.11;19.36;98830.84;5134647;27;20035;-48
2023/07/31 08:12:06;;;;;;;11.20;3.08;;;;;;;37.86;20.13;98836.91;5134594;27;20026;-48
2023/07/31 08:14:32;;;;;;;13.15;3.28;;;;;;;37.71;20.51;98837.94;5133224;27;20023;-47
2023/07/31 08:16:58;;;;;;;12.15;2.42;;;;;;;37.94;19.98;98835.78;5133201;27;20545;-48
2023/07/31 08:19:24;;;;;;;12.52;2.97;;;;;;;37.88;20.18;98826.34;5134733;27;20026;-47
2023/07/31 08:21:49;;;;;;;11.88;2.05;;;;;;;38.10;20.31;98821.06;5134356;27;20382;-47
2023/07/31 08:24:15;;;;;;;6.90;1.80;;;;;;;38.22;19.23;98819.94;5134679;27;20079;-47
2023/07/31 08:26:41;;;;;;;16.75;2.92;;;;;;;38.23;19.04;98821.50;5134276;27;20477;-47
2023/07/31 08:29:06;;;;;;;17.95;2.88;;;;;;;38.64;18.85;98822.16;5134281;27;20452;-47
2023/07/31 08:31:32;;;;;;;19.17;2.83;;;;;;;38.89;18.35;98819.47;5134237;27;20517;-47
2023/07/31 08:33:58;;;;;;;9.30;2.85;;;;;;;39.03;18.16;98812.50;5133987;27;20059;-47
2023/07/31 08:36:23;;;;;;;9.63;2.60;;;;;;;39.36;18.11;98808.59;5133056;27;20107;-47
2023/07/31 08:38:52;;;;;;;10.75;2.40;;;;;;;39.77;17.60;98800.00;5132983;27;20031;-48
2023/07/31 08:41:18;;;;;;;21.67;3.72;;;;;;;39.96;17.57;98792.53;5132657;27;20015;-47
2023/07/31 08:43:46;;;;;;;12.55;2.50;;;;;;;40.22;17.28;98788.53;5132681;27;20023;-47
2023/07/31 08:46:14;;;;;;;27.40;4.10;;;;;;;40.21;17.12;98768.53;5133886;27;20022;-50
2023/07/31 08:48:42;;;;;;;32.00;4.18;;;;;;;40.31;17.30;98784.22;5133923;27;20453;-49
2023/07/31 08:51:09;;;;;;;11.88;2.03;;;;;;;40.93;16.67;98773.72;5132521;27;20023;-50
2023/07/31 08:53:35;;;;;;;7.15;1.83;;;;;;;41.39;16.23;98769.84;5132763;27;20028;-50
2023/07/31 08:56:02;;;;;;;7.15;2.20;;;;;;;41.87;15.53;98771.03;5132345;27;20046;-49
2023/07/31 08:58:32;;;;;;;6.90;1.95;;;;;;;42.54;15.43;98768.69;5133683;27;20023;-50
2023/07/31 09:01:00;;;;;;;16.45;3.10;;;;;;;42.49;15.36;98760.91;5133707;27;20019;-50
2023/07/31 09:03:26;;;;;;;28.45;3.38;;;;;;;42.28;15.29;98767.44;5132258;27;20023;-50
2023/07/31 09:05:53;;;;;;;14.15;2.95;;;;;;;42.18;15.74;98763.63;5133376;27;20557;-50
2023/07/31 09:08:21;;;;;;;10.65;2.30;;;;;;;41.99;15.50;98772.47;5132192;27;20035;-50
2023/07/31 09:10:47;;;;;;;7.10;2.10;;;;;;;42.14;15.18;98765.66;5133516;27;20492;-50
2023/07/31 09:13:14;;;;;;;14.90;2.75;;;;;;;42.48;15.03;98765.66;5133454;27;20023;-50
2023/07/31 09:15:42;;;;;;;17.02;3.58;;;;;;;42.23;15.25;98759.63;5133378;27;20123;-50
2023/07/31 09:18:08;;;;;;;8.63;2.17;;;;;;;41.77;15.89;98769.16;5133406;27;20094;-50
2023/07/31 09:20:34;;;;;;;52.55;47.60;;;;;;;41.36;16.02;98769.91;5133307;27;20624;-50
2023/07/31 09:23:09;;;;;;;12.00;6.13;;;;;;;40.50;16.79;98768.41;5133233;27;20015;-50
2023/07/31 09:25:35;;;;;;;23.65;3.78;;;;;;;40.46;16.75;98759.41;5133304;27;20074;-50
2023/07/31 09:28:04;;;;;;;14.55;2.58;;;;;;;40.77;16.68;98759.66;5132720;27;20023;-50
2023/07/31 09:30:31;;;;;;;10.90;2.13;;;;;;;41.11;16.37;98757.88;5131835;27;20023;-50
2023/07/31 09:33:09;;;;;;;10.45;2.95;;;;;;;41.60;16.43;98740.59;5133076;27;20030;-50
2023/07/31 09:35:37;;;;;;;18.67;3.42;;;;;;;41.95;15.76;98744.16;5132912;27;20041;-50
2023/07/31 09:38:11;;;;;;;6.75;2.80;;;;;;;41.58;15.82;98738.22;5133357;27;20019;-50
2023/07/31 09:40:42;;;;;;;5.00;1.75;;;;;;;41.21;15.88;98728.69;5133011;27;20035;-50
2023/07/31 09:43:13;;;;;;;11.70;2.63;;;;;;;40.54;16.87;98736.19;5133011;27;20383;-50
2023/07/31 09:45:41;;;;;;;10.90;2.53;;;;;;;40.38;17.25;98724.88;5133192;27;20102;-50
2023/07/31 09:48:16;;;;;;;8.60;2.40;;;;;;;40.55;16.97;98718.50;5132905;27;20015;-49
2023/07/31 09:50:46;;;;;;;15.05;3.10;;;;;;;41.22;16.53;98711.00;5132936;27;20035;-50
2023/07/31 09:53:13;;;;;;;10.70;2.42;;;;;;;41.72;15.99;98709.75;5132834;27;20023;-50
2023/07/31 09:55:41;;;;;;;9.45;2.20;;;;;;;41.78;15.78;98713.63;5132776;27;20023;-49
2023/07/31 09:58:11;;;;;;;9.18;2.40;;;;;;;41.49;15.58;98708.38;5132850;27;20023;-50
2023/07/31 10:00:38;;;;;;;5.35;1.70;;;;;;;41.14;16.11;98706.69;5132733;27;20027;-50
2023/07/31 10:03:10;;;;;;;10.82;2.30;;;;;;;41.01;16.20;98711.13;5131358;28;20065;-50
2023/07/31 10:05:42;;;;;;;16.63;4.03;;;;;;;41.18;16.17;98701.19;5132440;27;20072;-50
2023/07/31 10:08:10;;;;;;;8.20;2.20;;;;;;;41.73;15.45;98700.28;5132684;27;20042;-50
2023/07/31 10:10:37;;;;;;;10.13;2.42;;;;;;;41.64;15.67;98702.75;5131259;28;20401;-50
2023/07/31 10:13:05;;;;;;;12.02;2.03;;;;;;;41.04;15.58;98699.31;5132587;27;20553;-50
2023/07/31 10:15:32;;;;;;;13.82;2.70;;;;;;;40.47;16.49;98684.75;5132612;27;20043;-50
2023/07/31 10:17:59;;;;;;;11.52;2.25;;;;;;;40.81;16.31;98692.41;5132580;27;20035;-50
2023/07/31 10:20:27;;;;;;;9.77;2.17;;;;;;;40.89;16.18;98696.69;5132448;27;20031;-50
2023/07/31 10:22:58;;;;;;;11.88;2.78;;;;;;;40.55;16.59;98685.47;5132496;27;20026;-50
2023/07/31 10:25:24;;;;;;;4.43;1.88;;;;;;;40.93;16.00;98682.88;5132592;27;20038;-50
2023/07/31 10:27:52;;;;;;;10.70;2.50;;;;;;;41.38;16.05;98677.41;5132528;27;20625;-50
2023/07/31 10:30:22;;;;;;;4.35;1.60;;;;;;;41.42;15.92;98674.63;5132404;27;20019;-50
2023/07/31 10:32:50;;;;;;;16.88;3.20;;;;;;;40.99;16.18;98672.22;5131171;28;20088;-50
2023/07/31 10:35:18;;;;;;;11.07;2.72;;;;;;;40.91;16.18;98666.78;5132377;27;20011;-50
2023/07/31 10:37:44;;;;;;;12.10;2.42;;;;;;;41.22;15.79;98660.63;5132380;27;20102;-50
2023/07/31 10:40:23;;;;;;;25.20;6.07;;;;;;;41.26;15.86;98661.38;5134617;27;20496;-50
2023/07/31 10:42:57;;;;;;;13.27;3.13;;;;;;;40.95;15.89;98650.22;5118018;27;20437;-50
2023/07/31 10:45:36;;;;;;;13.00;3.00;;;;;;;40.78;16.10;98646.41;5136361;27;20432;-50
2023/07/31 10:48:14;;;;;;;15.77;3.00;;;;;;;40.89;15.81;98643.56;5136276;27;20061;-50
2023/07/31 10:50:55;;;;;;;12.48;2.50;;;;;;;41.00;15.73;98641.53;5136514;27;20472;-50
2023/07/31 10:53:27;;;;;;;18.27;2.97;;;;;;;40.96;15.77;98640.78;5134909;27;20027;-50
2023/07/31 10:55:53;;;;;;;4.03;1.85;;;;;;;40.66;15.89;98635.88;5136059;27;20054;-50
2023/07/31 10:58:21;;;;;;;17.38;3.22;;;;;;;39.79;16.50;98635.50;5136059;27;20047;-50
2023/07/31 11:00:46;;;;;;;46.97;5.50;;;;;;;39.62;16.61;98642.63;5134752;27;20023;-50
2023/07/31 11:03:21;;;;;;;112.80;11.55;;;;;;;39.75;16.86;98643.00;5136148;27;20479;-49
2023/07/31 11:05:59;;;;;;;12.93;2.40;;;;;;;39.78;16.69;98639.44;5135593;27;20062;-50
2023/07/31 11:08:27;;;;;;;51.33;5.93;;;;;;;39.96;16.66;98639.38;5134124;27;20038;-50
2023/07/31 11:11:02;;;;;;;13.77;3.30;;;;;;;39.66;16.63;98637.13;5135856;27;20024;-50
2023/07/31 11:13:28;;;;;;;13.93;3.22;;;;;;;39.70;16.80;98637.88;5134444;27;20031;-50
2023/07/31 11:15:54;;;;;;;30.55;3.88;;;;;;;40.16;16.62;98623.19;5135677;27;20039;-50
2023/07/31 11:18:20;;;;;;;26.58;4.57;;;;;;;40.53;16.38;98621.81;5135678;27;20051;-50
2023/07/31 11:20:46;;;;;;;47.55;5.03;;;;;;;40.81;15.89;98622.81;5135562;27;20030;-50
2023/07/31 11:23:12;;;;;;;6.78;2.10;;;;;;;40.72;15.82;98624.03;5135518;27;20018;-50
2023/07/31 11:25:41;;;;;;;21.45;3.38;;;;;;;40.64;16.02;98621.75;5135515;27;20027;-50
2023/07/31 11:28:11;;;;;;;13.00;2.63;;;;;;;40.90;15.86;98614.88;5135434;27;20059;-50